createdAt,value
2018-09-30T00:00:18.683Z,2.9
2018-09-30T00:02:19.422Z,2
2018-09-30T00:04:19.182Z,2.6
2018-09-30T00:06:19.260Z,1.8
2018-09-30T00:08:19.010Z,2
2018-09-30T00:10:19.354Z,1.6
2018-09-30T00:12:19.119Z,2
2018-09-30T00:14:18.892Z,2.1
2018-09-30T00:16:18.662Z,2.1
2018-09-30T00:18:18.501Z,2.3
2018-09-30T00:20:19.350Z,1.8
2018-09-30T00:22:19.104Z,1.5
2018-09-30T00:24:18.874Z,2
2018-09-30T00:26:19.437Z,1.7
2018-09-30T00:28:19.196Z,2.2
2018-09-30T00:30:18.965Z,1.9
2018-09-30T00:32:18.650Z,2.1
2018-09-30T00:34:19.435Z,1.9
2018-09-30T00:36:19.099Z,1.7
2018-09-30T00:38:19.062Z,2.2
2018-09-30T00:40:19.300Z,2.3
2018-09-30T00:42:19.062Z,2.2
2018-09-30T00:44:18.852Z,2
2018-09-30T00:46:19.413Z,2.3
2018-09-30T00:48:19.175Z,2.7
2018-09-30T00:50:18.961Z,2.6
2018-09-30T00:52:18.749Z,2.2
2018-09-30T00:54:18.515Z,2.1
2018-09-30T00:56:18.724Z,2.5
2018-09-30T00:58:19.518Z,1.8
2018-09-30T01:00:19.361Z,2.5
2018-09-30T01:02:19.136Z,1.7
2018-09-30T01:04:18.906Z,1.9
2018-09-30T01:06:18.995Z,2.3
2018-09-30T01:08:18.793Z,2
2018-09-30T01:10:19.116Z,1.9
2018-09-30T01:12:19.176Z,1.3
2018-09-30T01:14:18.946Z,2
2018-09-30T01:16:19.059Z,1.6
2018-09-30T01:18:18.890Z,2
2018-09-30T01:20:18.719Z,2
2018-09-30T01:22:19.493Z,1.7
2018-09-30T01:24:19.248Z,1.8
2018-09-30T01:26:18.870Z,2
2018-09-30T01:28:18.621Z,1.6
2018-09-30T01:30:19.404Z,2
2018-09-30T01:32:19.153Z,1.3
2018-09-30T01:34:18.921Z,2
2018-09-30T01:36:19.431Z,1.7
2018-09-30T01:38:19.187Z,1.9
2018-09-30T01:40:19.409Z,1.9
2018-09-30T01:42:19.154Z,1.6
2018-09-30T01:44:18.907Z,1.7
2018-09-30T01:46:19.506Z,1.3
2018-09-30T01:48:19.292Z,1.6
2018-09-30T01:50:19.065Z,1.4
2018-09-30T01:52:18.843Z,1.9
2018-09-30T01:54:18.613Z,1.8
2018-09-30T01:56:19.152Z,1.6
2018-09-30T01:58:18.940Z,1.4
2018-09-30T02:00:18.693Z,2.2
2018-09-30T02:02:19.478Z,1.4
2018-09-30T02:04:19.245Z,1.4
2018-09-30T02:06:19.306Z,1.9
2018-09-30T02:08:19.096Z,2.1
2018-09-30T02:10:19.350Z,1.8
2018-09-30T02:12:19.120Z,1.6
2018-09-30T02:14:18.869Z,1.9
2018-09-30T02:16:19.446Z,1.4
2018-09-30T02:18:19.316Z,1.4
2018-09-30T02:20:19.094Z,1.6
2018-09-30T02:22:18.826Z,1.3
2018-09-30T02:24:18.607Z,1.7
2018-09-30T02:26:19.167Z,1.7
2018-09-30T02:28:18.916Z,2.1
2018-09-30T02:30:18.723Z,1.7
2018-09-30T02:32:19.488Z,1.5
2018-09-30T02:34:19.274Z,1.4
2018-09-30T02:36:18.809Z,1.2
2018-09-30T02:38:18.578Z,2.2
2018-09-30T02:40:18.840Z,1.7
2018-09-30T02:42:18.649Z,1.1
2018-09-30T02:44:19.406Z,1.7
2018-09-30T02:46:18.905Z,1.2
2018-09-30T02:48:18.678Z,1.4
2018-09-30T02:50:19.542Z,1.4
2018-09-30T02:52:19.301Z,1.8
2018-09-30T02:54:19.106Z,1.2
2018-09-30T02:56:18.767Z,1.6
2018-09-30T02:58:18.510Z,2
2018-09-30T03:00:19.286Z,1.3
2018-09-30T03:02:19.047Z,1.5
2018-09-30T03:04:18.821Z,2.1
2018-09-30T03:06:19.027Z,1.2
2018-09-30T03:08:18.776Z,1.2
2018-09-30T03:10:19.052Z,1.5
2018-09-30T03:12:19.106Z,1.8
2018-09-30T03:14:18.872Z,1.4
2018-09-30T03:16:19.430Z,1.7
2018-09-30T03:18:19.272Z,1.2
2018-09-30T03:20:19.033Z,1.8
2018-09-30T03:22:18.646Z,1.3
2018-09-30T03:24:19.403Z,1.4
2018-09-30T03:26:18.956Z,1.8
2018-09-30T03:28:18.750Z,1.6
2018-09-30T03:30:18.532Z,1.2
2018-09-30T03:32:19.275Z,1.3
2018-09-30T03:34:19.030Z,1.7
2018-09-30T03:36:18.559Z,1.5
2018-09-30T03:38:19.303Z,1.3
2018-09-30T03:40:18.550Z,1.4
2018-09-30T03:42:19.316Z,1.3
2018-09-30T03:44:19.092Z,1
2018-09-30T03:46:19.248Z,1.9
2018-09-30T03:48:19.046Z,1.7
2018-09-30T03:50:18.790Z,1.6
2018-09-30T03:52:18.570Z,1.6
2018-09-30T03:54:19.330Z,1.5
2018-09-30T03:56:19.400Z,1.4
2018-09-30T03:58:19.186Z,1.1
2018-09-30T04:00:19.040Z,1.5
2018-09-30T04:02:18.822Z,1
2018-09-30T04:04:18.636Z,1.5
2018-09-30T04:06:19.211Z,1.2
2018-09-30T04:08:19.002Z,1.2
2018-09-30T04:10:19.242Z,1.1
2018-09-30T04:12:19.032Z,1.2
2018-09-30T04:14:18.796Z,1.4
2018-09-30T04:16:18.847Z,1.4
2018-09-30T04:18:18.695Z,2
2018-09-30T04:20:19.458Z,2.4
2018-09-30T04:22:19.206Z,2
2018-09-30T04:24:18.980Z,1.9
2018-09-30T04:26:19.124Z,1.4
2018-09-30T04:28:18.890Z,2
2018-09-30T04:30:18.656Z,1.6
2018-09-30T04:32:19.418Z,1.6
2018-09-30T04:34:19.188Z,2
2018-09-30T04:36:18.766Z,1.3
2018-09-30T04:38:18.509Z,1.3
2018-09-30T04:40:18.724Z,1.1
2018-09-30T04:42:19.492Z,1.4
2018-09-30T04:44:19.267Z,1.4
2018-09-30T04:46:18.965Z,1.7
2018-09-30T04:48:18.718Z,1.2
2018-09-30T04:50:19.484Z,1.1
2018-09-30T04:52:19.254Z,1.7
2018-09-30T04:54:18.992Z,1.2
2018-09-30T04:56:19.116Z,1.4
2018-09-30T04:58:18.870Z,1.4
2018-09-30T05:00:18.633Z,1.4
2018-09-30T05:02:19.426Z,1.5
2018-09-30T05:04:19.196Z,1.5
2018-09-30T05:06:19.233Z,2
2018-09-30T05:08:18.999Z,1.8
2018-09-30T05:10:19.347Z,1.7
2018-09-30T05:12:19.108Z,1.2
2018-09-30T05:14:18.871Z,1.6
2018-09-30T05:16:19.039Z,1.2
2018-09-30T05:18:18.973Z,1.1
2018-09-30T05:20:18.752Z,1.4
2018-09-30T05:22:18.517Z,1.5
2018-09-30T05:24:19.297Z,1.3
2018-09-30T05:26:19.373Z,1.6
2018-09-30T05:28:19.147Z,1.1
2018-09-30T05:30:18.930Z,2.5
2018-09-30T05:32:18.688Z,1.5
2018-09-30T05:34:19.473Z,1.6
2018-09-30T05:36:19.364Z,1.5
2018-09-30T05:38:19.161Z,1.7
2018-09-30T05:40:19.408Z,1.4
2018-09-30T05:42:19.192Z,1.8
2018-09-30T05:44:19.076Z,1.4
2018-09-30T05:46:18.636Z,1.4
2018-09-30T05:48:19.395Z,1.5
2018-09-30T05:50:19.236Z,1.5
2018-09-30T05:52:19.006Z,1.6
2018-09-30T05:54:18.789Z,2.3
2018-09-30T05:56:18.866Z,1.9
2018-09-30T05:58:18.664Z,1.5
2018-09-30T06:00:19.446Z,1.2
2018-09-30T06:02:19.215Z,1.7
2018-09-30T06:04:18.985Z,1.7
2018-09-30T06:06:19.069Z,1.6
2018-09-30T06:08:18.840Z,1.5
2018-09-30T06:10:19.078Z,1.3
2018-09-30T06:12:18.839Z,1.6
2018-09-30T06:14:19.000Z,1.6
2018-09-30T06:16:18.558Z,1.4
2018-09-30T06:18:19.437Z,1.5
2018-09-30T06:20:19.223Z,1.7
2018-09-30T06:22:19.296Z,2
2018-09-30T06:24:19.050Z,1.6
2018-09-30T06:26:19.359Z,2.5
2018-09-30T06:28:19.098Z,1
2018-09-30T06:30:18.870Z,2.3
2018-09-30T06:32:18.648Z,1.9
2018-09-30T06:34:19.427Z,2.1
2018-09-30T06:36:18.960Z,1.6
2018-09-30T06:38:18.747Z,1.6
2018-09-30T06:40:19.043Z,1.4
2018-09-30T06:42:18.871Z,2
2018-09-30T06:44:18.637Z,2.4
2018-09-30T06:46:19.458Z,1.6
2018-09-30T06:48:18.543Z,1.2
2018-09-30T06:50:19.309Z,1.8
2018-09-30T06:52:19.054Z,2.4
2018-09-30T06:54:18.811Z,2.1
2018-09-30T06:56:19.341Z,1.9
2018-09-30T06:58:19.098Z,1.8
2018-09-30T07:00:18.919Z,1.8
2018-09-30T07:02:18.725Z,2.2
2018-09-30T07:04:19.507Z,1.9
2018-09-30T07:06:19.082Z,2.1
2018-09-30T07:08:18.852Z,1.6
2018-09-30T07:10:19.112Z,2
2018-09-30T07:12:18.875Z,2.5
2018-09-30T07:14:18.659Z,1.8
2018-09-30T07:16:18.784Z,1.6
2018-09-30T07:18:18.657Z,1.8
2018-09-30T07:20:19.449Z,1.6
2018-09-30T07:22:19.316Z,1.7
2018-09-30T07:24:19.179Z,1.5
2018-09-30T07:26:18.798Z,2.1
2018-09-30T07:28:18.581Z,1.8
2018-09-30T07:30:19.375Z,1.5
2018-09-30T07:32:19.156Z,2.2
2018-09-30T07:34:18.953Z,2.5
2018-09-30T07:36:18.701Z,2
2018-09-30T07:38:19.473Z,1.7
2018-09-30T07:40:18.732Z,1.6
2018-09-30T07:42:18.542Z,1.8
2018-09-30T07:44:19.352Z,1.6
2018-09-30T07:46:18.802Z,1.8
2018-09-30T07:48:18.561Z,1.4
2018-09-30T07:50:19.374Z,1.6
2018-09-30T07:52:19.169Z,1.5
2018-09-30T07:54:18.935Z,1.5
2018-09-30T07:56:19.049Z,1.8
2018-09-30T07:58:18.831Z,1.8
2018-09-30T08:00:18.622Z,1.5
2018-09-30T08:02:19.381Z,1.5
2018-09-30T08:04:19.177Z,1.8
2018-09-30T08:06:19.274Z,1.9
2018-09-30T08:08:19.088Z,1.3
2018-09-30T08:10:19.362Z,1.7
2018-09-30T08:12:19.128Z,2.2
2018-09-30T08:14:18.881Z,1.4
2018-09-30T08:16:18.602Z,1
2018-09-30T08:18:18.553Z,1.6
2018-09-30T08:20:19.345Z,1.4
2018-09-30T08:22:19.101Z,1.5
2018-09-30T08:24:19.006Z,1.2
2018-09-30T08:26:18.767Z,1.3
2018-09-30T08:28:18.537Z,1.1
2018-09-30T08:30:19.301Z,2.1
2018-09-30T08:32:19.099Z,1.1
2018-09-30T08:34:18.918Z,1.6
2018-09-30T08:36:19.011Z,1.5
2018-09-30T08:38:18.785Z,1.3
2018-09-30T08:40:19.071Z,1.5
2018-09-30T08:42:18.880Z,1.9
2018-09-30T08:44:18.765Z,1.7
2018-09-30T08:46:18.526Z,1.9
2018-09-30T08:48:19.328Z,1.5
2018-09-30T08:50:19.154Z,0.8
2018-09-30T08:52:18.956Z,1.4
2018-09-30T08:54:18.741Z,0.7
2018-09-30T08:56:19.413Z,1.2
2018-09-30T08:58:19.214Z,1.3
2018-09-30T09:00:19.004Z,0.9
2018-09-30T09:02:18.798Z,1
2018-09-30T09:04:18.612Z,1.1
2018-09-30T09:06:18.852Z,0.9
2018-09-30T09:08:18.644Z,1
2018-09-30T09:10:18.872Z,1.1
2018-09-30T09:12:18.655Z,1.5
2018-09-30T09:14:19.448Z,1.6
2018-09-30T09:16:19.066Z,0.8
2018-09-30T09:18:18.939Z,1.1
2018-09-30T09:20:18.762Z,1
2018-09-30T09:22:18.664Z,0.7
2018-09-30T09:24:18.609Z,0.4
2018-09-30T09:26:19.174Z,2.4
2018-09-30T09:28:19.023Z,0.6
2018-09-30T09:30:18.832Z,1.1
2018-09-30T09:32:18.603Z,0.7
2018-09-30T09:34:19.369Z,1.2
2018-09-30T09:36:18.962Z,0.8
2018-09-30T09:38:18.802Z,1
2018-09-30T09:40:19.182Z,1.1
2018-09-30T09:42:18.979Z,0.7
2018-09-30T09:44:18.748Z,0.8
2018-09-30T09:46:19.351Z,1.1
2018-09-30T09:48:19.148Z,0.8
2018-09-30T09:50:19.008Z,0.7
2018-09-30T09:52:18.798Z,0.5
2018-09-30T09:54:18.578Z,1.2
2018-09-30T09:56:18.686Z,1.5
2018-09-30T09:58:19.485Z,1
2018-09-30T10:00:19.314Z,1
2018-09-30T10:02:19.113Z,0.5
2018-09-30T10:04:18.903Z,0.6
2018-09-30T10:06:19.277Z,0.7
2018-09-30T10:08:19.144Z,0.9
2018-09-30T10:10:18.594Z,0.5
2018-09-30T10:12:19.378Z,0.5
2018-09-30T10:14:19.192Z,0.5
2018-09-30T10:16:19.263Z,0.8
2018-09-30T10:18:19.143Z,0.6
2018-09-30T10:20:18.953Z,0.6
2018-09-30T10:22:18.751Z,1.5
2018-09-30T10:24:18.550Z,1
2018-09-30T10:26:18.637Z,0.9
2018-09-30T10:28:19.433Z,0.7
2018-09-30T10:30:19.246Z,0.7
2018-09-30T10:32:19.049Z,0.8
2018-09-30T10:34:18.835Z,0.6
2018-09-30T10:36:19.013Z,1
2018-09-30T10:38:18.873Z,1
2018-09-30T10:40:19.185Z,0.9
2018-09-30T10:42:18.999Z,0.8
2018-09-30T10:44:18.791Z,0.9
2018-09-30T10:46:19.323Z,0.6
2018-09-30T10:48:19.136Z,0.7
2018-09-30T10:50:18.983Z,0.8
2018-09-30T10:52:18.761Z,2.2
2018-09-30T10:54:18.561Z,0.6
2018-09-30T10:56:18.131Z,0.8
2018-09-30T10:58:18.936Z,0.7
2018-09-30T11:00:18.733Z,0.6
2018-09-30T11:02:18.540Z,1.2
2018-09-30T11:04:19.314Z,1.6
2018-09-30T11:06:19.454Z,0.7
2018-09-30T11:08:19.263Z,0.4
2018-09-30T11:10:17.573Z,1
2018-09-30T11:12:19.371Z,0.8
2018-09-30T11:14:19.159Z,1
2018-09-30T11:16:18.772Z,0.7
2018-09-30T11:18:17.644Z,0.6
2018-09-30T11:20:19.460Z,1
2018-09-30T11:22:19.284Z,0.6
2018-09-30T11:24:18.107Z,1.2
2018-09-30T11:26:17.723Z,0.9
2018-09-30T11:28:19.533Z,0.6
2018-09-30T11:30:18.340Z,0.7
2018-09-30T11:32:19.150Z,0.9
2018-09-30T11:34:18.979Z,0.9
2018-09-30T11:36:19.103Z,0.6
2018-09-30T11:38:17.900Z,0.7
2018-09-30T11:40:19.186Z,0.4
2018-09-30T11:42:18.293Z,0.7
2018-09-30T11:44:19.115Z,0.7
2018-09-30T11:46:17.895Z,0.4
2018-09-30T11:48:18.702Z,0.9
2018-09-30T11:50:19.526Z,0.3
2018-09-30T11:52:19.325Z,0.7
2018-09-30T11:54:18.108Z,0.7
2018-09-30T11:56:17.744Z,1.1
2018-09-30T11:58:17.540Z,0.4
2018-09-30T12:00:19.353Z,0.6
2018-09-30T12:02:19.222Z,0.5
2018-09-30T12:04:18.122Z,0.7
2018-09-30T12:06:18.233Z,0.5
2018-09-30T12:08:18.057Z,0.7
2018-09-30T12:10:18.303Z,0.7
2018-09-30T12:12:18.393Z,0.6
2018-09-30T12:14:18.207Z,0.5
2018-09-30T12:16:18.065Z,0.5
2018-09-30T12:18:18.966Z,0.6
2018-09-30T12:20:17.833Z,0.8
2018-09-30T12:22:17.651Z,1.1
2018-09-30T12:24:18.456Z,1.1
2018-09-30T12:26:18.032Z,0.5
2018-09-30T12:28:17.841Z,0.6
2018-09-30T12:30:17.671Z,0.6
2018-09-30T12:32:18.497Z,0.4
2018-09-30T12:34:18.305Z,1
2018-09-30T12:36:17.905Z,0.5
2018-09-30T12:38:17.713Z,0.5
2018-09-30T12:40:18.027Z,0.9
2018-09-30T12:42:17.844Z,0.5
2018-09-30T12:44:17.691Z,1.2
2018-09-30T12:46:17.881Z,0.7
2018-09-30T12:48:17.702Z,0.5
2018-09-30T12:50:18.553Z,0.8
2018-09-30T12:52:18.396Z,0.8
2018-09-30T12:54:18.194Z,0.5
2018-09-30T12:56:17.791Z,0.8
2018-09-30T12:58:17.607Z,0.8
2018-09-30T13:00:18.411Z,0.4
2018-09-30T13:02:18.224Z,0.6
2018-09-30T13:04:18.044Z,0.4
2018-09-30T13:06:17.676Z,0.8
2018-09-30T13:08:18.506Z,1
2018-09-30T13:10:17.788Z,0.4
2018-09-30T13:12:17.613Z,0.4
2018-09-30T13:14:18.426Z,0.6
2018-09-30T13:16:18.034Z,0.9
2018-09-30T13:18:17.925Z,0.6
2018-09-30T13:20:17.742Z,0.6
2018-09-30T13:22:17.564Z,0.8
2018-09-30T13:24:18.391Z,0.5
2018-09-30T13:26:18.533Z,0.8
2018-09-30T13:28:18.349Z,0.6
2018-09-30T13:30:18.188Z,0.7
2018-09-30T13:32:17.995Z,0.4
2018-09-30T13:34:17.808Z,0.6
2018-09-30T13:36:17.985Z,0.6
2018-09-30T13:38:17.791Z,0.4
2018-09-30T13:40:18.285Z,0.5
2018-09-30T13:42:18.473Z,0.4
2018-09-30T13:44:18.306Z,0.8
2018-09-30T13:46:18.651Z,0.5
2018-09-30T13:48:17.648Z,1
2018-09-30T13:50:18.507Z,1.2
2018-09-30T13:52:18.346Z,1.1
2018-09-30T13:54:18.163Z,0.4
2018-09-30T13:56:17.797Z,0.7
2018-09-30T13:58:17.663Z,0.5
2018-09-30T14:00:17.615Z,0.8
2018-09-30T14:02:18.456Z,0.5
2018-09-30T14:04:18.282Z,0.6
2018-09-30T14:06:18.425Z,0.7
2018-09-30T14:08:18.257Z,0.3
2018-09-30T14:10:18.562Z,0.7
2018-09-30T14:12:18.393Z,0.6
2018-09-30T14:14:18.215Z,0.6
2018-09-30T14:16:17.832Z,0.6
2018-09-30T14:18:17.758Z,0.6
2018-09-30T14:20:17.573Z,0.5
2018-09-30T14:22:18.411Z,0.6
2018-09-30T14:24:18.243Z,0.4
2018-09-30T14:26:18.457Z,0.5
2018-09-30T14:28:18.300Z,0.9
2018-09-30T14:30:18.157Z,0.8
2018-09-30T14:32:17.982Z,0.7
2018-09-30T14:34:17.885Z,0.3
2018-09-30T14:36:17.671Z,1
2018-09-30T14:38:18.509Z,1
2018-09-30T14:40:17.908Z,0.6
2018-09-30T14:42:17.720Z,1
2018-09-30T14:44:18.576Z,0.3
2018-09-30T14:46:17.653Z,0.5
2018-09-30T14:48:18.648Z,0.4
2018-09-30T14:50:17.708Z,0.6
2018-09-30T14:52:18.529Z,0.7
2018-09-30T14:54:18.437Z,0.5
2018-09-30T14:56:18.206Z,0.7
2018-09-30T14:58:18.025Z,0.4
2018-09-30T15:00:17.866Z,0.3
2018-09-30T15:02:17.730Z,0.7
2018-09-30T15:04:17.599Z,0.6
2018-09-30T15:06:17.783Z,0.6
2018-09-30T15:08:17.632Z,1
2018-09-30T15:10:17.919Z,0.4
2018-09-30T15:12:17.750Z,1
2018-09-30T15:14:17.577Z,0.8
2018-09-30T15:16:18.171Z,0.9
2018-09-30T15:18:18.089Z,0.6
2018-09-30T15:20:17.980Z,0.9
2018-09-30T15:22:17.837Z,0.5
2018-09-30T15:24:17.665Z,0.6
2018-09-30T15:26:17.812Z,0.6
2018-09-30T15:28:17.646Z,0.6
2018-09-30T15:30:18.480Z,1.2
2018-09-30T15:32:18.309Z,0.9
2018-09-30T15:34:18.112Z,0.8
2018-09-30T15:36:17.817Z,1
2018-09-30T15:38:17.657Z,0.5
2018-09-30T15:40:17.957Z,1.2
2018-09-30T15:42:17.791Z,1
2018-09-30T15:44:17.606Z,1.1
2018-09-30T15:46:18.454Z,0.5
2018-09-30T15:48:18.280Z,0.7
2018-09-30T15:50:18.112Z,0.6
2018-09-30T15:52:17.922Z,1.6
2018-09-30T15:54:17.729Z,5.3
2018-09-30T15:56:18.344Z,10.5
2018-09-30T15:58:18.150Z,39.9
2018-09-30T16:00:18.027Z,13.4
2018-09-30T16:02:17.845Z,7.6
2018-09-30T16:04:17.657Z,13.3
2018-09-30T16:06:17.761Z,15.6
2018-09-30T16:08:17.572Z,11.1
2018-09-30T16:10:17.884Z,7
2018-09-30T16:12:17.689Z,5.3
2018-09-30T16:14:18.526Z,5.7
2018-09-30T16:16:17.637Z,3.1
2018-09-30T16:18:18.536Z,3.6
2018-09-30T16:20:18.347Z,3.2
2018-09-30T16:22:18.156Z,2.5
2018-09-30T16:24:17.987Z,1.8
2018-09-30T16:26:18.216Z,0.8
2018-09-30T16:28:18.081Z,1.1
2018-09-30T16:30:18.068Z,0.8
2018-09-30T16:32:17.880Z,0.7
2018-09-30T16:34:17.695Z,2.2
2018-09-30T16:36:18.341Z,0.6
2018-09-30T16:38:18.137Z,0.9
2018-09-30T16:40:18.436Z,1.2
2018-09-30T16:42:18.220Z,0.9
2018-09-30T16:44:18.046Z,1.4
2018-09-30T16:46:17.747Z,1.1
2018-09-30T16:48:17.544Z,1.4
2018-09-30T16:50:18.339Z,1.1
2018-09-30T16:52:18.165Z,0.9
2018-09-30T16:54:17.992Z,1
2018-09-30T16:56:18.155Z,1.3
2018-09-30T16:58:18.007Z,1.1
2018-09-30T17:00:17.888Z,1.3
2018-09-30T17:02:17.676Z,1.3
2018-09-30T17:04:18.485Z,2.1
2018-09-30T17:06:18.171Z,2.1
2018-09-30T17:08:18.004Z,2.1
2018-09-30T17:10:18.351Z,1.7
2018-09-30T17:12:18.144Z,1.7
2018-09-30T17:14:18.934Z,1.3
2018-09-30T17:16:18.542Z,1.4
2018-09-30T17:18:19.436Z,2.1
2018-09-30T17:20:18.282Z,2
2018-09-30T17:22:19.090Z,2.1
2018-09-30T17:24:18.939Z,2.7
2018-09-30T17:26:18.600Z,2.1
2018-09-30T17:28:18.413Z,3.6
2018-09-30T17:30:18.219Z,3.1
2018-09-30T17:32:19.002Z,3.1
2018-09-30T17:34:18.781Z,3.7
2018-09-30T17:36:19.458Z,4.2
2018-09-30T17:38:19.263Z,4.3
2018-09-30T17:40:19.543Z,3.1
2018-09-30T17:42:18.333Z,4
2018-09-30T17:44:19.164Z,2.7
2018-09-30T17:46:19.360Z,2.5
2018-09-30T17:48:19.162Z,2.4
2018-09-30T17:50:18.972Z,3.2
2018-09-30T17:52:17.777Z,2.7
2018-09-30T17:54:18.578Z,2.6
2018-09-30T17:56:18.669Z,2.5
2018-09-30T17:58:19.473Z,2.8
2018-09-30T18:00:19.286Z,3.4
2018-09-30T18:02:19.093Z,2.7
2018-09-30T18:04:18.872Z,3.5
2018-09-30T18:06:19.145Z,3
2018-09-30T18:08:18.964Z,2.5
2018-09-30T18:10:19.255Z,2.5
2018-09-30T18:12:19.097Z,2.5
2018-09-30T18:14:18.919Z,2.7
2018-09-30T18:16:19.209Z,3.4
2018-09-30T18:18:19.128Z,2.4
2018-09-30T18:20:18.987Z,2.9
2018-09-30T18:22:18.763Z,3.5
2018-09-30T18:24:18.544Z,4.3
2018-09-30T18:26:19.138Z,3.2
2018-09-30T18:28:18.950Z,3.4
2018-09-30T18:30:18.779Z,4.6
2018-09-30T18:32:18.596Z,3.1
2018-09-30T18:34:19.397Z,4.3
2018-09-30T18:36:18.543Z,4
2018-09-30T18:38:19.371Z,5.1
2018-09-30T18:40:18.926Z,4.6
2018-09-30T18:42:18.992Z,3.8
2018-09-30T18:44:18.779Z,4
2018-09-30T18:46:18.939Z,3.9
2018-09-30T18:48:18.766Z,4
2018-09-30T18:50:18.610Z,3.7
2018-09-30T18:52:18.664Z,4.5
2018-09-30T18:54:19.465Z,4.5
2018-09-30T18:56:19.109Z,3.5
2018-09-30T18:58:19.082Z,3.9
2018-09-30T19:00:18.867Z,3.5
2018-09-30T19:02:18.676Z,4.2
2018-09-30T19:04:19.467Z,3.5
2018-09-30T19:06:19.552Z,4.1
2018-09-30T19:08:19.389Z,8
2018-09-30T19:10:18.731Z,6.3
2018-09-30T19:12:18.531Z,4.5
2018-09-30T19:14:19.331Z,4.2
2018-09-30T19:16:18.887Z,3.8
2018-09-30T19:18:19.097Z,4
2018-09-30T19:20:18.911Z,3.8
2018-09-30T19:22:18.705Z,4.3
2018-09-30T19:24:19.491Z,3.7
2018-09-30T19:26:19.291Z,3.8
2018-09-30T19:28:19.045Z,3.8
2018-09-30T19:30:18.908Z,4.1
2018-09-30T19:32:18.709Z,3.7
2018-09-30T19:34:19.492Z,3.5
2018-09-30T19:36:19.101Z,4.7
2018-09-30T19:38:18.985Z,4.1
2018-09-30T19:40:19.268Z,4
2018-09-30T19:42:19.070Z,3.6
2018-09-30T19:44:18.840Z,4.3
2018-09-30T19:46:19.019Z,4.4
2018-09-30T19:48:18.832Z,4.1
2018-09-30T19:50:18.786Z,4.5
2018-09-30T19:52:18.572Z,3.8
2018-09-30T19:54:19.374Z,5.2
2018-09-30T19:56:18.689Z,4
2018-09-30T19:58:19.474Z,4.1
2018-09-30T20:00:19.343Z,4.3
2018-09-30T20:02:19.143Z,4.1
2018-09-30T20:04:18.932Z,4.1
2018-09-30T20:06:19.048Z,4.5
2018-09-30T20:08:18.857Z,3.4
2018-09-30T20:10:19.214Z,4.6
2018-09-30T20:12:19.072Z,4.3
2018-09-30T20:14:18.895Z,3.8
2018-09-30T20:16:18.788Z,3.7
2018-09-30T20:18:18.639Z,4.1
2018-09-30T20:20:19.464Z,5.1
2018-09-30T20:22:19.284Z,4.6
2018-09-30T20:24:19.107Z,5.3
2018-09-30T20:26:18.990Z,4.5
2018-09-30T20:28:18.799Z,4.9
2018-09-30T20:30:18.623Z,4.3
2018-09-30T20:32:19.427Z,5.4
2018-09-30T20:34:19.220Z,4.4
2018-09-30T20:36:19.308Z,4.8
2018-09-30T20:38:19.101Z,4.4
2018-09-30T20:40:19.382Z,5.6
2018-09-30T20:42:19.202Z,4.1
2018-09-30T20:44:19.008Z,6.1
2018-09-30T20:46:19.127Z,7.2
2018-09-30T20:48:18.904Z,7.5
2018-09-30T20:50:18.709Z,6
2018-09-30T20:52:19.545Z,5.8
2018-09-30T20:54:19.351Z,5.5
2018-09-30T20:56:19.452Z,3.9
2018-09-30T20:58:19.260Z,5.2
2018-09-30T21:00:19.077Z,5.1
2018-09-30T21:02:18.880Z,7
2018-09-30T21:04:18.668Z,7.3
2018-09-30T21:06:18.523Z,5.3
2018-09-30T21:08:19.298Z,4.9
2018-09-30T21:10:18.589Z,4.8
2018-09-30T21:12:19.409Z,5.4
2018-09-30T21:14:19.196Z,5
2018-09-30T21:16:19.363Z,6
2018-09-30T21:18:19.201Z,7.3
2018-09-30T21:20:19.070Z,6.4
2018-09-30T21:22:18.827Z,6.2
2018-09-30T21:24:18.621Z,5.3
2018-09-30T21:26:19.240Z,5.2
2018-09-30T21:28:19.102Z,5.2
2018-09-30T21:30:19.092Z,5.3
2018-09-30T21:32:18.554Z,5.3
2018-09-30T21:34:19.415Z,4.6
2018-09-30T21:36:18.776Z,4.6
2018-09-30T21:38:18.594Z,5.1
2018-09-30T21:40:18.851Z,5.6
2018-09-30T21:42:18.656Z,4.4
2018-09-30T21:44:19.428Z,4.4
2018-09-30T21:46:19.037Z,5.5
2018-09-30T21:48:18.795Z,5.3
2018-09-30T21:50:18.644Z,5.8
2018-09-30T21:52:19.444Z,5.4
2018-09-30T21:54:19.238Z,4.7
2018-09-30T21:56:18.991Z,4.6
2018-09-30T21:58:18.772Z,4.5
2018-09-30T22:00:18.583Z,5.8
2018-09-30T22:02:19.367Z,5.6
2018-09-30T22:04:19.159Z,5
2018-09-30T22:06:19.413Z,5.3
2018-09-30T22:08:19.176Z,5
2018-09-30T22:10:19.468Z,4.5
2018-09-30T22:12:19.239Z,4.8
2018-09-30T22:14:19.016Z,5
2018-09-30T22:16:18.611Z,4.8
2018-09-30T22:18:19.486Z,4.7
2018-09-30T22:20:19.283Z,4.3
2018-09-30T22:22:19.105Z,4.5
2018-09-30T22:24:18.869Z,4.3
2018-09-30T22:26:19.459Z,5.1
2018-09-30T22:28:19.240Z,4.9
2018-09-30T22:30:19.016Z,4.8
2018-09-30T22:32:18.794Z,5.3
2018-09-30T22:34:18.568Z,6.8
2018-09-30T22:36:18.799Z,5.6
2018-09-30T22:38:18.585Z,5.2
2018-09-30T22:40:18.980Z,5
2018-09-30T22:42:19.276Z,4.7
2018-09-30T22:44:19.091Z,5.3
2018-09-30T22:46:19.224Z,4.5
2018-09-30T22:48:18.987Z,4.9
2018-09-30T22:50:18.804Z,5.7
2018-09-30T22:52:19.442Z,5.2
2018-09-30T22:54:19.246Z,4.9
2018-09-30T22:56:19.443Z,5.6
2018-09-30T22:58:19.234Z,4.4
2018-09-30T23:00:19.092Z,5.7
2018-09-30T23:02:18.864Z,4.3
2018-09-30T23:04:18.625Z,4.6
2018-09-30T23:06:18.739Z,4.7
2018-09-30T23:08:18.497Z,4.4
2018-09-30T23:10:18.804Z,5.5
2018-09-30T23:12:18.612Z,5
2018-09-30T23:14:19.406Z,4.4
2018-09-30T23:16:18.984Z,3.7
2018-09-30T23:18:18.844Z,4.4
2018-09-30T23:20:18.626Z,5.4
2018-09-30T23:22:19.446Z,5.4
2018-09-30T23:24:19.202Z,4.3
2018-09-30T23:26:18.804Z,4.3
2018-09-30T23:28:18.563Z,4.4
2018-09-30T23:30:19.351Z,4.5
2018-09-30T23:32:19.119Z,4.6
2018-09-30T23:34:18.911Z,4.2
2018-09-30T23:36:18.545Z,3.5
2018-09-30T23:38:19.351Z,3.9
2018-09-30T23:40:18.656Z,4.2
2018-09-30T23:42:19.409Z,4
2018-09-30T23:44:19.197Z,4.6
2018-09-30T23:46:19.341Z,4.1
2018-09-30T23:48:19.113Z,4.9
2018-09-30T23:50:18.902Z,6
2018-09-30T23:52:18.697Z,4.2
2018-09-30T23:54:19.492Z,4.5
2018-09-30T23:56:18.604Z,5.1
2018-09-30T23:58:19.395Z,3.9
